Terminal Aerodrome Forecast
Issued by NWS

Home | Current Version | Previous Version | Text Only | Print | Product List | Glossary On
Versions: 1 2 3 4 5 6 7 8 9 10 11 12 13 14 15 16 17
000
FTUS46 KSEW 232300
TAFCLM
TAF
KCLM 232320Z 2400/2424 31004KT P6SM -RA BKN007 OVC050
     FM240300 VRB03KT 5SM -RA BR OVC012
     FM240600 VRB04KT 4SM -RA BR OVC015
     FM241100 VRB04KT P6SM -SHRA BKN025 OVC050
     FM241800 VRB03KT P6SM SCT060
      AMD NOT SKED=

USA.gov is the U.S. government's official web portal to all federal, state and local government web resources and services.